createdAt,value
2022-12-04T00:01:15.729Z,102194.84
2022-12-04T00:03:42.880Z,102193.03
2022-12-04T00:06:14.794Z,102202.31
2022-12-04T00:08:42.109Z,102199.06
2022-12-04T00:11:11.815Z,102201.88
2022-12-04T00:13:39.205Z,102196.47
2022-12-04T00:16:11.555Z,102198.28
2022-12-04T00:18:38.261Z,102196.63
2022-12-04T00:21:06.279Z,102195.84
2022-12-04T00:23:33.993Z,102188.78
2022-12-04T00:26:02.050Z,102188.16
2022-12-04T00:28:28.928Z,102191.63
2022-12-04T00:30:56.173Z,102181.94
2022-12-04T00:33:23.501Z,102180.31
2022-12-04T00:35:57.557Z,102180.31
2022-12-04T00:38:24.269Z,102176.72
2022-12-04T00:40:53.601Z,102170.66
2022-12-04T00:43:20.667Z,102174.28
2022-12-04T00:45:47.219Z,102175.28
2022-12-04T00:48:14.220Z,102177.91
2022-12-04T00:50:41.002Z,102174.44
2022-12-04T00:53:07.726Z,102178.88
2022-12-04T00:55:34.287Z,102180.50
2022-12-04T00:58:00.848Z,102176.09
2022-12-04T01:00:27.424Z,102176.09
2022-12-04T01:02:54.038Z,102170.84
2022-12-04T01:05:21.076Z,102162.19
2022-12-04T01:07:47.717Z,102172.44
2022-12-04T01:10:14.266Z,102174.44
2022-12-04T01:12:40.819Z,102164.97
2022-12-04T01:15:07.906Z,102172.03
2022-12-04T01:17:34.528Z,102163.16
2022-12-04T01:20:01.086Z,102167.59
2022-12-04T01:22:27.672Z,102162.38
2022-12-04T01:24:57.209Z,102174.66
2022-12-04T01:27:25.487Z,102166.81
2022-12-04T01:29:52.444Z,102172.03
2022-12-04T01:32:19.108Z,102166.81
2022-12-04T01:34:45.856Z,102169.41
2022-12-04T01:37:12.386Z,102167.59
2022-12-04T01:39:39.079Z,102171.19
2022-12-04T01:42:05.659Z,102171.19
2022-12-04T01:44:32.478Z,102164.19
2022-12-04T01:47:00.646Z,102157.94
2022-12-04T01:49:38.186Z,102166.81
2022-12-04T01:52:23.936Z,102164.19
2022-12-04T01:54:56.024Z,102161.75
2022-12-04T01:57:25.326Z,102165.34
2022-12-04T02:00:00.743Z,102173.03
2022-12-04T02:02:34.701Z,102173.81
2022-12-04T02:05:03.127Z,102167.97
2022-12-04T02:07:29.856Z,102170.56
2022-12-04T02:09:56.831Z,102172.38
2022-12-04T02:12:43.089Z,102181.03
2022-12-04T02:15:26.642Z,102170.78
2022-12-04T02:18:03.985Z,102174.84
2022-12-04T02:20:43.407Z,102169.59
2022-12-04T02:23:41.836Z,102173.03
2022-12-04T02:26:40.036Z,102172.03
2022-12-04T02:29:33.102Z,102177.28
2022-12-04T02:32:08.885Z,102166.97
2022-12-04T02:34:44.438Z,102165.78
2022-12-04T02:37:17.964Z,102159.94
2022-12-04T02:39:56.590Z,102168.59
2022-12-04T02:42:34.314Z,102165.16
2022-12-04T02:45:06.463Z,102159.13
2022-12-04T02:47:35.376Z,102160.09
2022-12-04T02:50:09.040Z,102167.78
2022-12-04T02:52:44.334Z,102159.75
2022-12-04T02:55:24.635Z,102154.69
2022-12-04T02:57:56.322Z,102155.50
2022-12-04T03:00:22.951Z,102152.06
2022-12-04T03:03:01.952Z,102148.66
2022-12-04T03:05:41.514Z,102158.94
2022-12-04T03:08:14.011Z,102159.75
2022-12-04T03:10:48.868Z,102158.13
2022-12-04T03:13:22.108Z,102149.47
2022-12-04T03:15:55.354Z,102139.00
2022-12-04T03:18:26.880Z,102145.03
2022-12-04T03:21:02.065Z,102139.78
2022-12-04T03:23:37.811Z,102131.13
2022-12-04T03:26:41.560Z,102130.97
2022-12-04T03:29:30.308Z,102125.72
2022-12-04T03:32:26.508Z,102125.72
2022-12-04T03:35:21.575Z,102122.47
2022-12-04T03:38:15.494Z,102124.91
2022-12-04T03:40:49.596Z,102113.63
2022-12-04T03:43:31.434Z,102123.28
2022-12-04T03:46:12.798Z,102125.09
2022-12-04T03:48:42.333Z,102131.13
2022-12-04T03:51:34.213Z,102126.69
2022-12-04T03:54:08.207Z,102130.16
2022-12-04T03:56:39.490Z,102128.34
2022-12-04T03:59:11.363Z,102135.19
2022-12-04T04:01:46.649Z,102134.38
2022-12-04T04:04:19.365Z,102139.44
2022-12-04T04:06:59.114Z,102138.63
2022-12-04T04:09:31.360Z,102133.56
2022-12-04T04:12:05.183Z,102124.09
2022-12-04T04:15:13.720Z,102130.97
2022-12-04T04:18:03.398Z,102132.78
2022-12-04T04:20:58.921Z,102132.16
2022-12-04T04:23:48.555Z,102131.31
2022-12-04T04:26:17.055Z,102127.09
2022-12-04T04:28:43.761Z,102115.81
2022-12-04T04:31:18.066Z,102118.44
2022-12-04T04:33:58.702Z,102115.81
2022-12-04T04:36:51.818Z,102124.47
2022-12-04T04:39:36.522Z,102122.66
2022-12-04T04:42:07.403Z,102121.84
2022-12-04T04:44:45.370Z,102127.28
2022-12-04T04:47:18.716Z,102129.09
2022-12-04T04:49:49.003Z,102123.84
2022-12-04T04:52:20.262Z,102128.28
2022-12-04T04:54:47.358Z,102130.06
2022-12-04T04:57:13.853Z,102119.59
2022-12-04T04:59:40.404Z,102124.84
2022-12-04T05:02:07.153Z,102123.22
2022-12-04T05:04:33.723Z,102125.84
2022-12-04T05:07:22.215Z,102121.41
2022-12-04T05:09:48.864Z,102121.59
2022-12-04T05:12:15.585Z,102132.06
2022-12-04T05:14:42.228Z,102126.66
2022-12-04T05:17:12.562Z,102136.31
2022-12-04T05:19:55.279Z,102136.31
2022-12-04T05:22:30.434Z,102138.13
2022-12-04T05:24:58.357Z,102137.28
2022-12-04T05:27:26.814Z,102137.13
2022-12-04T05:29:55.096Z,102141.53
2022-12-04T05:32:23.202Z,102143.34
2022-12-04T05:34:50.945Z,102144.16
2022-12-04T05:37:17.609Z,102143.34
2022-12-04T05:39:44.554Z,102145.97
2022-12-04T05:42:12.136Z,102145.97
2022-12-04T05:44:38.888Z,102151.22
2022-12-04T05:47:06.011Z,102145.97
2022-12-04T05:49:33.663Z,102153.84
2022-12-04T05:52:01.564Z,102143.34
2022-12-04T05:54:28.249Z,102142.53
2022-12-04T05:56:54.782Z,102143.34
2022-12-04T05:59:22.219Z,102137.13
2022-12-04T06:01:49.031Z,102139.72
2022-12-04T06:04:15.642Z,102131.69
2022-12-04T06:06:42.170Z,102130.06
2022-12-04T06:09:08.957Z,102125.84
2022-12-04T06:11:37.346Z,102121.41
2022-12-04T06:14:06.929Z,102129.25
2022-12-04T06:16:38.256Z,102137.91
2022-12-04T06:19:11.238Z,102135.31
2022-12-04T06:21:40.316Z,102130.91
2022-12-04T06:24:08.431Z,102131.06
2022-12-04T06:26:34.952Z,102136.13
2022-12-04T06:29:01.888Z,102132.50
2022-12-04T06:31:30.025Z,102142.97
2022-12-04T06:33:58.794Z,102142.16
2022-12-04T06:36:25.617Z,102138.53
2022-12-04T06:38:54.103Z,102140.19
2022-12-04T06:41:21.955Z,102140.34
2022-12-04T06:43:50.691Z,102133.31
2022-12-04T06:46:21.593Z,102140.19
2022-12-04T06:48:48.818Z,102140.97
2022-12-04T06:51:17.403Z,102146.84
2022-12-04T06:53:44.652Z,102146.84
2022-12-04T06:56:16.207Z,102136.56
2022-12-04T06:58:42.795Z,102143.41
2022-12-04T07:01:12.100Z,102142.78
2022-12-04T07:03:39.353Z,102142.78
2022-12-04T07:06:24.035Z,102140.97
2022-12-04T07:08:57.610Z,102145.41
2022-12-04T07:11:24.370Z,102144.41
2022-12-04T07:13:51.396Z,102142.78
2022-12-04T07:16:21.396Z,102146.22
2022-12-04T07:18:54.171Z,102136.56
2022-12-04T07:21:26.441Z,102144.41
2022-12-04T07:23:56.315Z,102154.88
2022-12-04T07:26:23.663Z,102148.84
2022-12-04T07:28:50.291Z,102146.41
2022-12-04T07:31:19.780Z,102146.41
2022-12-04T07:33:46.964Z,102149.84
2022-12-04T07:36:15.897Z,102146.84
2022-12-04T07:38:42.961Z,102142.84
2022-12-04T07:41:11.749Z,102149.16
2022-12-04T07:43:38.569Z,102139.75
2022-12-04T07:46:08.086Z,102143.41
2022-12-04T07:48:34.727Z,102153.75
2022-12-04T07:51:08.187Z,102155.25
2022-12-04T07:53:36.034Z,102146.25
2022-12-04T07:56:04.170Z,102145.09
2022-12-04T07:58:31.004Z,102153.03
2022-12-04T08:01:06.497Z,102153.25
2022-12-04T08:03:33.177Z,102159.56
2022-12-04T08:06:01.632Z,102156.78
2022-12-04T08:08:28.428Z,102156.03
2022-12-04T08:10:55.061Z,102148.38
2022-12-04T08:13:21.712Z,102163.72
2022-12-04T08:15:48.521Z,102166.56
2022-12-04T08:18:15.086Z,102166.00
2022-12-04T08:20:41.628Z,102169.66
2022-12-04T08:23:08.278Z,102176.31
2022-12-04T08:25:34.874Z,102173.94
2022-12-04T08:28:01.420Z,102172.94
2022-12-04T08:30:27.918Z,102173.56
2022-12-04T08:32:54.482Z,102185.69
2022-12-04T08:35:20.979Z,102172.78
2022-12-04T08:37:47.710Z,102173.03
2022-12-04T08:40:14.663Z,102168.41
2022-12-04T08:42:41.394Z,102177.50
2022-12-04T08:45:08.440Z,102182.53
2022-12-04T08:47:35.207Z,102192.84
2022-12-04T08:50:02.224Z,102186.38
2022-12-04T08:52:28.726Z,102186.19
2022-12-04T08:54:55.242Z,102182.38
2022-12-04T08:57:21.905Z,102196.72
2022-12-04T08:59:48.418Z,102186.44
2022-12-04T09:02:16.904Z,102188.66
2022-12-04T09:04:43.568Z,102189.84
2022-12-04T09:07:10.237Z,102192.66
2022-12-04T09:09:36.811Z,102189.84
2022-12-04T09:12:03.569Z,102189.25
2022-12-04T09:14:30.072Z,102188.03
2022-12-04T09:16:56.723Z,102185.84
2022-12-04T09:19:23.345Z,102190.06
2022-12-04T09:21:49.996Z,102184.81
2022-12-04T09:24:16.536Z,102180.78
2022-12-04T09:26:43.174Z,102191.09
2022-12-04T09:29:11.747Z,102184.03
2022-12-04T09:31:38.521Z,102182.41
2022-12-04T09:34:05.165Z,102183.63
2022-12-04T09:36:31.815Z,102182.19
2022-12-04T09:38:58.702Z,102188.66
2022-12-04T09:41:34.357Z,102183.47
2022-12-04T09:44:09.518Z,102182.44
2022-12-04T09:46:51.017Z,102183.47
2022-12-04T09:49:25.720Z,102183.25
2022-12-04T09:51:56.631Z,102182.44
2022-12-04T09:54:30.142Z,102188.13
2022-12-04T09:57:03.483Z,102181.84
2022-12-04T09:59:32.922Z,102179.22
2022-12-04T10:02:27.314Z,102175.59
2022-12-04T10:04:54.070Z,102170.13
2022-12-04T10:07:43.300Z,102177.63
2022-12-04T10:10:27.922Z,102171.16
2022-12-04T10:13:06.511Z,102169.56
2022-12-04T10:15:44.353Z,102168.34
2022-12-04T10:18:23.204Z,102171.78
2022-12-04T10:21:09.899Z,102174.03
2022-12-04T10:24:04.197Z,102172.19
2022-12-04T10:26:36.810Z,102170.56
2022-12-04T10:29:08.738Z,102168.16
2022-12-04T10:31:37.955Z,102177.81
2022-12-04T10:34:19.986Z,102174.63
2022-12-04T10:36:52.347Z,102182.28
2022-12-04T10:39:26.585Z,102176.59
2022-12-04T10:42:01.209Z,102172.38
2022-12-04T10:44:27.930Z,102178.63
2022-12-04T10:47:00.492Z,102180.25
2022-12-04T10:49:33.650Z,102169.75
2022-12-04T10:52:00.341Z,102173.78
2022-12-04T10:54:39.844Z,102170.38
2022-12-04T10:57:08.412Z,102173.78
2022-12-04T10:59:35.613Z,102160.47
2022-12-04T11:02:20.558Z,102163.72
2022-12-04T11:05:02.106Z,102156.81
2022-12-04T11:07:43.209Z,102159.66
2022-12-04T11:10:24.722Z,102156.63
2022-12-04T11:12:58.145Z,102150.78
2022-12-04T11:15:25.406Z,102150.56
2022-12-04T11:17:52.969Z,102151.38
2022-12-04T11:20:24.550Z,102153.81
2022-12-04T11:22:55.071Z,102151.38
2022-12-04T11:25:23.938Z,102148.75
2022-12-04T11:27:55.746Z,102150.78
2022-12-04T11:30:29.056Z,102153.03
2022-12-04T11:32:56.752Z,102137.06
2022-12-04T11:35:28.544Z,102142.94
2022-12-04T11:38:15.404Z,102148.97
2022-12-04T11:40:48.924Z,102139.69
2022-12-04T11:43:17.843Z,102136.03
2022-12-04T11:46:03.808Z,102130.78
2022-12-04T11:48:31.981Z,102117.47
2022-12-04T11:51:19.319Z,102124.75
2022-12-04T11:54:11.504Z,102109.78
2022-12-04T11:56:47.279Z,102101.53
2022-12-04T11:59:20.440Z,102107.56
2022-12-04T12:01:58.443Z,102105.13
2022-12-04T12:04:51.245Z,102095.25
2022-12-04T12:07:36.393Z,102093.63
2022-12-04T12:10:12.310Z,102096.03
2022-12-04T12:12:57.358Z,102093.22
2022-12-04T12:15:33.928Z,102089.19
2022-12-04T12:18:30.410Z,102082.53
2022-12-04T12:21:11.234Z,102095.03
2022-12-04T12:23:59.273Z,102082.31
2022-12-04T12:26:41.070Z,102081.31
2022-12-04T12:29:15.933Z,102085.13
2022-12-04T12:32:14.769Z,102086.75
2022-12-04T12:34:47.474Z,102080.69
2022-12-04T12:37:29.967Z,102082.31
2022-12-04T12:40:10.601Z,102067.97
2022-12-04T12:42:52.533Z,102079.28
2022-12-04T12:45:45.720Z,102079.47
2022-12-04T12:48:56.557Z,102075.03
2022-12-04T12:51:44.711Z,102075.63
2022-12-04T12:54:23.358Z,102073.41
2022-12-04T12:56:55.429Z,102073.81
2022-12-04T12:59:26.058Z,102069.97
2022-12-04T13:02:01.495Z,102074.22
2022-12-04T13:04:43.682Z,102074.81
2022-12-04T13:07:40.275Z,102078.88
2022-12-04T13:10:14.740Z,102075.44
2022-12-04T13:12:50.575Z,102068.97
2022-12-04T13:15:24.493Z,102058.88
2022-12-04T13:17:54.665Z,102062.09
2022-12-04T13:20:28.891Z,102058.88
2022-12-04T13:23:11.151Z,102066.53
2022-12-04T13:25:58.369Z,102053.63
2022-12-04T13:28:48.731Z,102058.63
2022-12-04T13:31:21.847Z,102061.06
2022-12-04T13:34:29.040Z,102054.41
2022-12-04T13:37:25.724Z,102046.72
2022-12-04T13:40:26.909Z,102051.59
2022-12-04T13:42:53.998Z,102061.50
2022-12-04T13:45:27.366Z,102053.63
2022-12-04T13:48:02.986Z,102056.63
2022-12-04T13:50:38.863Z,102044.69
2022-12-04T13:53:06.939Z,102055.19
2022-12-04T13:55:36.598Z,102051.16
2022-12-04T13:58:26.038Z,102058.06
2022-12-04T14:01:02.881Z,102061.69
2022-12-04T14:03:47.250Z,102079.88
2022-12-04T14:06:34.190Z,102070.97
2022-12-04T14:09:04.358Z,102077.84
2022-12-04T14:11:42.381Z,102077.25
2022-12-04T14:14:24.228Z,102070.34
2022-12-04T14:16:51.827Z,102078.25
2022-12-04T14:19:27.534Z,102082.09
2022-12-04T14:21:54.276Z,102082.09
2022-12-04T14:24:37.533Z,102072.59
2022-12-04T14:27:33.519Z,102080.50
2022-12-04T14:30:00.670Z,102068.53
2022-12-04T14:32:32.846Z,102070.19
2022-12-04T14:34:59.924Z,102065.91
2022-12-04T14:37:40.883Z,102062.28
2022-12-04T14:40:16.588Z,102073.81
2022-12-04T14:42:43.196Z,102076.22
2022-12-04T14:45:22.262Z,102071.78
2022-12-04T14:48:13.274Z,102076.63
2022-12-04T14:50:48.744Z,102078.66
2022-12-04T14:53:35.182Z,102070.19
2022-12-04T14:56:23.623Z,102084.53
2022-12-04T14:58:51.145Z,102080.47
2022-12-04T15:01:28.967Z,102079.66
2022-12-04T15:03:59.324Z,102065.53
2022-12-04T15:06:31.771Z,102077.25
2022-12-04T15:09:19.772Z,102070.38
2022-12-04T15:12:12.698Z,102070.19
2022-12-04T15:14:49.271Z,102073.00
2022-12-04T15:17:18.602Z,102072.22
2022-12-04T15:19:45.992Z,102070.38
2022-12-04T15:22:22.453Z,102069.16
2022-12-04T15:24:50.307Z,102076.25
2022-12-04T15:27:20.955Z,102077.03
2022-12-04T15:29:51.434Z,102073.00
2022-12-04T15:32:21.522Z,102068.34
2022-12-04T15:34:52.999Z,102070.59
2022-12-04T15:37:25.826Z,102063.28
2022-12-04T15:39:53.334Z,102074.81
2022-12-04T15:42:27.556Z,102088.16
2022-12-04T15:45:01.579Z,102083.72
2022-12-04T15:47:49.578Z,102083.09
2022-12-04T15:50:16.425Z,102095.44
2022-12-04T15:53:07.909Z,102094.84
2022-12-04T15:55:49.710Z,102096.03
2022-12-04T15:58:25.306Z,102091.59
2022-12-04T16:01:03.468Z,102093.41
2022-12-04T16:03:36.382Z,102104.72
2022-12-04T16:06:07.828Z,102095.84
2022-12-04T16:08:37.930Z,102104.13
2022-12-04T16:11:07.741Z,102099.28
2022-12-04T16:13:37.509Z,102106.16
2022-12-04T16:16:07.163Z,102099.88
2022-12-04T16:18:34.074Z,102100.47
2022-12-04T16:21:01.042Z,102107.56
2022-12-04T16:23:27.846Z,102105.13
2022-12-04T16:25:54.608Z,102104.13
2022-12-04T16:28:21.290Z,102110.78
2022-12-04T16:30:55.129Z,102104.50
2022-12-04T16:33:21.835Z,102101.28
2022-12-04T16:35:48.454Z,102095.81
2022-12-04T16:38:16.764Z,102100.88
2022-12-04T16:40:45.316Z,102092.38
2022-12-04T16:43:14.697Z,102098.06
2022-12-04T16:45:47.689Z,102090.38
2022-12-04T16:48:15.280Z,102101.47
2022-12-04T16:50:42.567Z,102097.63
2022-12-04T16:53:15.775Z,102107.94
2022-12-04T16:55:48.756Z,102106.13
2022-12-04T16:58:16.142Z,102102.69
2022-12-04T17:00:45.062Z,102099.25
2022-12-04T17:03:18.993Z,102098.84
2022-12-04T17:05:45.580Z,102093.19
2022-12-04T17:08:12.261Z,102097.03
2022-12-04T17:10:38.926Z,102102.28
2022-12-04T17:13:05.602Z,102093.97
2022-12-04T17:15:32.260Z,102094.78
2022-12-04T17:17:58.933Z,102091.94
2022-12-04T17:20:26.567Z,102093.34
2022-12-04T17:22:53.071Z,102085.25
2022-12-04T17:25:19.670Z,102105.50
2022-12-04T17:27:46.558Z,102092.53
2022-12-04T17:30:14.141Z,102090.94
2022-12-04T17:32:40.632Z,102103.47
2022-12-04T17:35:13.383Z,102108.75
2022-12-04T17:37:39.919Z,102108.50
2022-12-04T17:40:08.274Z,102103.47
2022-12-04T17:42:34.867Z,102104.28
2022-12-04T17:45:01.401Z,102100.84
2022-12-04T17:47:28.323Z,102108.31
2022-12-04T17:49:55.052Z,102108.91
2022-12-04T17:52:22.548Z,102110.94
2022-12-04T17:54:50.221Z,102118.22
2022-12-04T17:57:17.067Z,102116.38
2022-12-04T17:59:44.445Z,102111.72
2022-12-04T18:02:12.346Z,102111.72
2022-12-04T18:04:38.930Z,102114.97
2022-12-04T18:07:05.496Z,102110.94
2022-12-04T18:09:32.614Z,102113.16
2022-12-04T18:12:01.582Z,102120.44
2022-12-04T18:14:29.435Z,102122.66
2022-12-04T18:16:57.631Z,102127.72
2022-12-04T18:19:26.359Z,102119.63
2022-12-04T18:21:54.340Z,102126.28
2022-12-04T18:24:22.329Z,102124.25
2022-12-04T18:26:50.250Z,102126.69
2022-12-04T18:29:20.038Z,102122.84
2022-12-04T18:31:46.922Z,102131.94
2022-12-04T18:34:13.926Z,102131.94
2022-12-04T18:36:41.278Z,102140.63
2022-12-04T18:39:11.915Z,102138.81
2022-12-04T18:41:38.630Z,102138.63
2022-12-04T18:44:05.698Z,102136.78
2022-12-04T18:46:33.108Z,102141.03
2022-12-04T18:49:00.278Z,102133.94
2022-12-04T18:51:30.335Z,102129.28
2022-12-04T18:54:03.412Z,102126.47
2022-12-04T18:56:31.395Z,102134.97
2022-12-04T18:59:08.100Z,102130.69
2022-12-04T19:01:35.203Z,102136.75
2022-12-04T19:04:04.876Z,102129.91
2022-12-04T19:06:35.734Z,102130.91
2022-12-04T19:09:05.887Z,102129.91
2022-12-04T19:11:33.112Z,102129.69
2022-12-04T19:14:00.578Z,102133.94
2022-12-04T19:16:28.000Z,102137.38
2022-12-04T19:18:56.260Z,102131.94
2022-12-04T19:21:23.456Z,102123.22
2022-12-04T19:23:54.938Z,102130.69
2022-12-04T19:26:21.390Z,102127.06
2022-12-04T19:28:48.101Z,102126.66
2022-12-04T19:31:18.473Z,102124.84
2022-12-04T19:33:45.090Z,102129.69
2022-12-04T19:36:13.398Z,102133.94
2022-12-04T19:38:40.388Z,102132.31
2022-12-04T19:41:13.984Z,102132.94
2022-12-04T19:43:45.070Z,102130.06
2022-12-04T19:46:14.091Z,102136.34
2022-12-04T19:48:41.033Z,102133.72
2022-12-04T19:51:14.432Z,102131.09
2022-12-04T19:53:41.809Z,102135.56
2022-12-04T19:56:13.921Z,102131.69
2022-12-04T19:58:41.075Z,102136.75
2022-12-04T20:01:11.292Z,102128.28
2022-12-04T20:03:38.366Z,102134.31
2022-12-04T20:06:07.946Z,102134.53
2022-12-04T20:08:36.567Z,102139.78
2022-12-04T20:11:13.735Z,102136.97
2022-12-04T20:13:41.511Z,102134.13
2022-12-04T20:16:10.741Z,102138.56
2022-12-04T20:18:39.248Z,102135.31
2022-12-04T20:21:11.324Z,102141.41
2022-12-04T20:23:38.786Z,102146.44
2022-12-04T20:26:08.628Z,102138.56
2022-12-04T20:28:36.594Z,102129.44
2022-12-04T20:31:25.146Z,102135.94
2022-12-04T20:33:53.640Z,102132.94
2022-12-04T20:36:22.219Z,102135.13
2022-12-04T20:38:50.420Z,102126.25
2022-12-04T20:41:17.319Z,102123.38
2022-12-04T20:43:46.258Z,102133.91
2022-12-04T20:46:17.050Z,102130.88
2022-12-04T20:48:48.883Z,102128.25
2022-12-04T20:51:17.742Z,102132.47
2022-12-04T20:53:45.985Z,102132.28
2022-12-04T20:56:13.280Z,102130.25
2022-12-04T20:58:40.664Z,102135.31
2022-12-04T21:01:12.798Z,102130.25
2022-12-04T21:03:39.879Z,102131.47
2022-12-04T21:06:13.954Z,102131.47
2022-12-04T21:09:03.230Z,102137.94
2022-12-04T21:11:33.564Z,102143.03
2022-12-04T21:14:23.527Z,102137.59
2022-12-04T21:16:51.405Z,102136.78
2022-12-04T21:19:21.109Z,102134.19
2022-12-04T21:21:48.390Z,102130.53
2022-12-04T21:24:17.602Z,102145.31
2022-12-04T21:26:45.034Z,102139.88
2022-12-04T21:29:12.318Z,102144.94
2022-12-04T21:31:39.382Z,102139.47
2022-12-04T21:34:08.403Z,102140.69
2022-12-04T21:36:35.015Z,102136.06
2022-12-04T21:39:01.809Z,102136.44
2022-12-04T21:41:47.238Z,102135.25
2022-12-04T21:44:17.808Z,102138.06
2022-12-04T21:46:45.571Z,102137.69
2022-12-04T21:49:13.716Z,102142.53
2022-12-04T21:51:56.881Z,102134.03
2022-12-04T21:54:24.924Z,102134.47
2022-12-04T21:56:51.876Z,102127.75
2022-12-04T21:59:18.722Z,102130.81
2022-12-04T22:01:45.445Z,102135.47
2022-12-04T22:04:12.197Z,102140.91
2022-12-04T22:06:38.820Z,102143.72
2022-12-04T22:09:08.628Z,102138.69
2022-12-04T22:11:38.333Z,102139.69
2022-12-04T22:14:05.233Z,102139.88
2022-12-04T22:16:35.725Z,102141.72
2022-12-04T22:19:05.129Z,102135.06
2022-12-04T22:21:31.783Z,102144.75
2022-12-04T22:24:00.520Z,102138.66
2022-12-04T22:26:29.356Z,102139.69
2022-12-04T22:28:56.301Z,102136.28
2022-12-04T22:31:26.288Z,102138.06
2022-12-04T22:33:54.951Z,102137.06
2022-12-04T22:36:24.933Z,102135.66
2022-12-04T22:39:08.894Z,102127.97
2022-12-04T22:41:36.170Z,102135.84
2022-12-04T22:44:02.822Z,102143.72
2022-12-04T22:46:29.561Z,102139.28
2022-12-04T22:48:56.413Z,102149.00
2022-12-04T22:51:23.268Z,102136.88
2022-12-04T22:53:52.255Z,102137.69
2022-12-04T22:56:24.801Z,102143.72
2022-12-04T22:58:52.932Z,102142.94
2022-12-04T23:01:25.470Z,102137.69
2022-12-04T23:03:52.342Z,102129.00
2022-12-04T23:06:21.520Z,102138.47
2022-12-04T23:08:48.471Z,102130.59
2022-12-04T23:11:20.063Z,102130.41
2022-12-04T23:13:51.990Z,102130.59
2022-12-04T23:16:20.457Z,102129.59
2022-12-04T23:18:47.725Z,102125.97
2022-12-04T23:21:15.114Z,102125.97
2022-12-04T23:23:43.573Z,102134.25
2022-12-04T23:26:14.019Z,102128.59
2022-12-04T23:28:41.029Z,102129.19
2022-12-04T23:31:08.108Z,102115.03
2022-12-04T23:33:34.737Z,102125.53
2022-12-04T23:36:02.654Z,102129.78
2022-12-04T23:38:30.146Z,102121.91
2022-12-04T23:41:05.807Z,102119.28
2022-12-04T23:43:32.627Z,102125.34
2022-12-04T23:45:59.196Z,102120.91
2022-12-04T23:48:26.271Z,102125.34
2022-12-04T23:50:53.665Z,102129.59
2022-12-04T23:53:20.914Z,102127.78
2022-12-04T23:56:04.507Z,102121.50
2022-12-04T23:58:32.193Z,102127.34
